Accueil
METAR-TAF:

METAR-TAF

Aéroports :

Frontone, Italie

latitude: 43-31N, longitude: 012-44E, altitude: 570 m

Observation

Le bulletin a été fait il y a 1 heure et 12 minutes, à 20:55 UTC
Vent 6 kt de nord-est
Température 10°C
Humidité 87%
Pression 1020 hPa
Visibilité 10 km ou plus
Quelques nuages à une hauteur de 2600 ft

METAR: LIVF 242055Z 05006KT 9999 FEW026 10/08 Q1020 RMK SCT SCT200 MON S W CLD SCT NC VAL NIL VIS MIN 9999

Heure: 23:07 (22:07 UTC)


TAF: absent

Observations et prévisions météorologiques de plus de 4000 aéroports (messages METAR et TAF).

Les stations disponibles sont représentées par des disques jaunes et rouges sur la carte.

Passer la souris dessus pour voir le nom de la station.

Cliquer dessus pour voir les observations et prévisions météorologiques.

Pour changer de carte: cliquez sur les boutons verts avec une croix noire pour zoomer, sur le bouton vert avec un tiret pour effectuer un zoom arrière, ou sur les flèches vertes pour les cartes adjacentes.


METAR-TAF: